sensor_id;sensor_type;location;lat;lon;timestamp;P1;durP1;ratioP1;P2;durP2;ratioP2
70838;SDS011;58464;52.298;4.852;2023-07-20T00:00:22;1.63;;;1.02;;
70838;SDS011;58464;52.298;4.852;2023-07-20T00:02:49;1.85;;;1.30;;
70838;SDS011;58464;52.298;4.852;2023-07-20T00:05:15;6.28;;;2.00;;
70838;SDS011;58464;52.298;4.852;2023-07-20T00:07:43;4.60;;;1.50;;
70838;SDS011;58464;52.298;4.852;2023-07-20T00:10:08;2.37;;;1.00;;
70838;SDS011;58464;52.298;4.852;2023-07-20T00:12:33;1.80;;;1.15;;
70838;SDS011;58464;52.298;4.852;2023-07-20T00:14:59;2.38;;;1.15;;
70838;SDS011;58464;52.298;4.852;2023-07-20T00:17:24;3.25;;;1.40;;
70838;SDS011;58464;52.298;4.852;2023-07-20T00:19:49;2.37;;;1.40;;
70838;SDS011;58464;52.298;4.852;2023-07-20T00:22:15;3.72;;;1.05;;
70838;SDS011;58464;52.298;4.852;2023-07-20T00:24:40;1.98;;;1.27;;
70838;SDS011;58464;52.298;4.852;2023-07-20T00:27:05;1.70;;;1.00;;
70838;SDS011;58464;52.298;4.852;2023-07-20T00:29:31;3.58;;;1.20;;
70838;SDS011;58464;52.298;4.852;2023-07-20T00:31:56;2.40;;;1.30;;
70838;SDS011;58464;52.298;4.852;2023-07-20T00:34:21;7.03;;;1.63;;
70838;SDS011;58464;52.298;4.852;2023-07-20T00:36:47;7.82;;;1.98;;
70838;SDS011;58464;52.298;4.852;2023-07-20T00:39:14;2.83;;;2.00;;
70838;SDS011;58464;52.298;4.852;2023-07-20T00:41:39;2.83;;;2.00;;
70838;SDS011;58464;52.298;4.852;2023-07-20T00:44:04;3.67;;;2.10;;
70838;SDS011;58464;52.298;4.852;2023-07-20T00:46:30;4.63;;;2.00;;
70838;SDS011;58464;52.298;4.852;2023-07-20T00:48:57;3.03;;;2.20;;
70838;SDS011;58464;52.298;4.852;2023-07-20T00:51:23;4.60;;;1.83;;
70838;SDS011;58464;52.298;4.852;2023-07-20T00:53:51;6.28;;;2.10;;
70838;SDS011;58464;52.298;4.852;2023-07-20T00:56:16;6.43;;;2.03;;
70838;SDS011;58464;52.298;4.852;2023-07-20T00:58:42;4.05;;;1.65;;
70838;SDS011;58464;52.298;4.852;2023-07-20T01:01:07;8.27;;;1.83;;
70838;SDS011;58464;52.298;4.852;2023-07-20T01:03:33;1.55;;;1.38;;
70838;SDS011;58464;52.298;4.852;2023-07-20T01:08:36;7.93;;;1.75;;
70838;SDS011;58464;52.298;4.852;2023-07-20T01:11:09;2.85;;;1.83;;
70838;SDS011;58464;52.298;4.852;2023-07-20T01:13:35;3.80;;;1.70;;
70838;SDS011;58464;52.298;4.852;2023-07-20T01:16:01;3.13;;;2.00;;
70838;SDS011;58464;52.298;4.852;2023-07-20T01:18:27;4.32;;;1.70;;
70838;SDS011;58464;52.298;4.852;2023-07-20T01:20:53;2.58;;;1.77;;
70838;SDS011;58464;52.298;4.852;2023-07-20T01:31:21;4.18;;;2.30;;
70838;SDS011;58464;52.298;4.852;2023-07-20T01:33:47;3.45;;;2.58;;
70838;SDS011;58464;52.298;4.852;2023-07-20T01:36:13;3.33;;;2.05;;
70838;SDS011;58464;52.298;4.852;2023-07-20T01:38:39;3.97;;;2.30;;
70838;SDS011;58464;52.298;4.852;2023-07-20T01:41:04;3.55;;;2.38;;
70838;SDS011;58464;52.298;4.852;2023-07-20T01:43:30;6.00;;;3.22;;
70838;SDS011;58464;52.298;4.852;2023-07-20T01:45:56;9.00;;;2.83;;
70838;SDS011;58464;52.298;4.852;2023-07-20T01:48:21;4.45;;;2.92;;
70838;SDS011;58464;52.298;4.852;2023-07-20T01:50:46;4.47;;;2.65;;
70838;SDS011;58464;52.298;4.852;2023-07-20T01:53:12;7.28;;;2.72;;
70838;SDS011;58464;52.298;4.852;2023-07-20T01:55:37;4.68;;;2.60;;
70838;SDS011;58464;52.298;4.852;2023-07-20T01:58:02;11.45;;;2.60;;
70838;SDS011;58464;52.298;4.852;2023-07-20T02:00:28;7.70;;;2.50;;
70838;SDS011;58464;52.298;4.852;2023-07-20T02:02:54;7.85;;;2.42;;
70838;SDS011;58464;52.298;4.852;2023-07-20T02:05:19;3.43;;;2.30;;
70838;SDS011;58464;52.298;4.852;2023-07-20T02:07:44;6.50;;;2.30;;
70838;SDS011;58464;52.298;4.852;2023-07-20T02:10:09;4.50;;;2.50;;
70838;SDS011;58464;52.298;4.852;2023-07-20T02:12:35;3.38;;;2.00;;
70838;SDS011;58464;52.298;4.852;2023-07-20T02:15:01;8.75;;;2.72;;
70838;SDS011;58464;52.298;4.852;2023-07-20T02:17:26;4.30;;;2.42;;
70838;SDS011;58464;52.298;4.852;2023-07-20T02:19:55;7.15;;;2.70;;
70838;SDS011;58464;52.298;4.852;2023-07-20T02:22:21;4.72;;;2.35;;
70838;SDS011;58464;52.298;4.852;2023-07-20T02:24:46;4.80;;;2.15;;
70838;SDS011;58464;52.298;4.852;2023-07-20T02:27:12;3.97;;;2.13;;
70838;SDS011;58464;52.298;4.852;2023-07-20T02:29:37;4.18;;;2.42;;
70838;SDS011;58464;52.298;4.852;2023-07-20T02:32:02;3.90;;;2.03;;
70838;SDS011;58464;52.298;4.852;2023-07-20T02:34:28;4.88;;;1.88;;
70838;SDS011;58464;52.298;4.852;2023-07-20T02:36:54;5.33;;;1.63;;
70838;SDS011;58464;52.298;4.852;2023-07-20T02:39:21;1.80;;;1.17;;
70838;SDS011;58464;52.298;4.852;2023-07-20T02:41:47;3.58;;;1.40;;
70838;SDS011;58464;52.298;4.852;2023-07-20T02:44:13;3.47;;;1.40;;
70838;SDS011;58464;52.298;4.852;2023-07-20T02:46:39;5.15;;;1.60;;
70838;SDS011;58464;52.298;4.852;2023-07-20T02:49:04;3.88;;;1.27;;
70838;SDS011;58464;52.298;4.852;2023-07-20T02:51:29;4.38;;;1.98;;
70838;SDS011;58464;52.298;4.852;2023-07-20T02:53:54;4.18;;;1.80;;
70838;SDS011;58464;52.298;4.852;2023-07-20T02:56:20;2.65;;;1.60;;
70838;SDS011;58464;52.298;4.852;2023-07-20T02:58:45;4.43;;;1.75;;
70838;SDS011;58464;52.298;4.852;2023-07-20T03:01:13;3.25;;;1.42;;
70838;SDS011;58464;52.298;4.852;2023-07-20T03:03:40;2.53;;;1.23;;
70838;SDS011;58464;52.298;4.852;2023-07-20T03:06:05;6.20;;;1.30;;
70838;SDS011;58464;52.298;4.852;2023-07-20T03:08:31;3.55;;;1.58;;
70838;SDS011;58464;52.298;4.852;2023-07-20T03:10:56;3.22;;;1.40;;
70838;SDS011;58464;52.298;4.852;2023-07-20T03:13:22;8.98;;;1.83;;
70838;SDS011;58464;52.298;4.852;2023-07-20T03:15:49;4.50;;;1.60;;
70838;SDS011;58464;52.298;4.852;2023-07-20T03:18:14;2.10;;;1.43;;
70838;SDS011;58464;52.298;4.852;2023-07-20T03:20:39;2.95;;;1.10;;
70838;SDS011;58464;52.298;4.852;2023-07-20T03:23:05;3.47;;;1.20;;
70838;SDS011;58464;52.298;4.852;2023-07-20T03:25:30;3.08;;;1.63;;
70838;SDS011;58464;52.298;4.852;2023-07-20T03:27:55;5.65;;;1.33;;
70838;SDS011;58464;52.298;4.852;2023-07-20T03:30:20;2.20;;;1.30;;
70838;SDS011;58464;52.298;4.852;2023-07-20T03:32:46;5.32;;;1.20;;
70838;SDS011;58464;52.298;4.852;2023-07-20T03:35:11;5.13;;;1.85;;
70838;SDS011;58464;52.298;4.852;2023-07-20T03:37:36;4.13;;;1.30;;
70838;SDS011;58464;52.298;4.852;2023-07-20T03:40:03;1.92;;;1.00;;
70838;SDS011;58464;52.298;4.852;2023-07-20T03:42:29;2.85;;;1.20;;
70838;SDS011;58464;52.298;4.852;2023-07-20T03:44:55;4.30;;;0.97;;
70838;SDS011;58464;52.298;4.852;2023-07-20T03:47:20;2.07;;;1.57;;
70838;SDS011;58464;52.298;4.852;2023-07-20T03:49:45;2.70;;;0.90;;
70838;SDS011;58464;52.298;4.852;2023-07-20T03:52:10;1.52;;;0.80;;
70838;SDS011;58464;52.298;4.852;2023-07-20T03:54:36;4.80;;;0.80;;
70838;SDS011;58464;52.298;4.852;2023-07-20T03:57:01;4.22;;;1.10;;
70838;SDS011;58464;52.298;4.852;2023-07-20T03:59:28;6.05;;;1.05;;
70838;SDS011;58464;52.298;4.852;2023-07-20T04:01:53;6.90;;;1.40;;
70838;SDS011;58464;52.298;4.852;2023-07-20T04:04:18;4.22;;;1.35;;
70838;SDS011;58464;52.298;4.852;2023-07-20T04:06:44;4.33;;;1.03;;
70838;SDS011;58464;52.298;4.852;2023-07-20T04:09:09;10.88;;;1.80;;
70838;SDS011;58464;52.298;4.852;2023-07-20T04:11:35;2.40;;;1.10;;
70838;SDS011;58464;52.298;4.852;2023-07-20T04:14:00;2.90;;;1.30;;
70838;SDS011;58464;52.298;4.852;2023-07-20T04:16:25;3.25;;;1.27;;
70838;SDS011;58464;52.298;4.852;2023-07-20T04:18:52;2.42;;;1.20;;
70838;SDS011;58464;52.298;4.852;2023-07-20T04:21:17;5.10;;;1.27;;
70838;SDS011;58464;52.298;4.852;2023-07-20T04:23:42;4.60;;;1.17;;
70838;SDS011;58464;52.298;4.852;2023-07-20T04:26:07;2.50;;;0.95;;
70838;SDS011;58464;52.298;4.852;2023-07-20T04:28:33;3.33;;;1.20;;
70838;SDS011;58464;52.298;4.852;2023-07-20T04:31:14;8.45;;;1.42;;
70838;SDS011;58464;52.298;4.852;2023-07-20T04:33:40;6.30;;;2.30;;
70838;SDS011;58464;52.298;4.852;2023-07-20T04:36:05;4.97;;;1.33;;
70838;SDS011;58464;52.298;4.852;2023-07-20T04:38:31;1.88;;;1.10;;
70838;SDS011;58464;52.298;4.852;2023-07-20T04:40:56;1.60;;;1.00;;
70838;SDS011;58464;52.298;4.852;2023-07-20T04:43:21;4.72;;;1.20;;
70838;SDS011;58464;52.298;4.852;2023-07-20T04:45:46;4.70;;;1.77;;
70838;SDS011;58464;52.298;4.852;2023-07-20T04:48:14;8.48;;;1.30;;
70838;SDS011;58464;52.298;4.852;2023-07-20T04:50:40;6.22;;;1.73;;
70838;SDS011;58464;52.298;4.852;2023-07-20T04:53:06;7.82;;;1.80;;
70838;SDS011;58464;52.298;4.852;2023-07-20T04:55:31;7.20;;;1.58;;
70838;SDS011;58464;52.298;4.852;2023-07-20T04:57:58;6.30;;;2.00;;
70838;SDS011;58464;52.298;4.852;2023-07-20T05:00:24;4.13;;;1.10;;
70838;SDS011;58464;52.298;4.852;2023-07-20T05:02:49;5.85;;;1.55;;
70838;SDS011;58464;52.298;4.852;2023-07-20T05:05:16;5.45;;;1.77;;
70838;SDS011;58464;52.298;4.852;2023-07-20T05:07:42;7.35;;;1.23;;
70838;SDS011;58464;52.298;4.852;2023-07-20T05:10:07;7.03;;;1.43;;
70838;SDS011;58464;52.298;4.852;2023-07-20T05:12:32;4.20;;;1.65;;
70838;SDS011;58464;52.298;4.852;2023-07-20T05:14:58;1.98;;;1.08;;
70838;SDS011;58464;52.298;4.852;2023-07-20T05:17:23;2.37;;;1.03;;
70838;SDS011;58464;52.298;4.852;2023-07-20T05:19:49;2.05;;;0.90;;
70838;SDS011;58464;52.298;4.852;2023-07-20T05:22:15;2.40;;;1.10;;
70838;SDS011;58464;52.298;4.852;2023-07-20T05:24:40;4.97;;;0.80;;
70838;SDS011;58464;52.298;4.852;2023-07-20T05:27:05;1.30;;;1.00;;
70838;SDS011;58464;52.298;4.852;2023-07-20T05:29:31;2.90;;;1.00;;
70838;SDS011;58464;52.298;4.852;2023-07-20T05:31:56;3.42;;;0.70;;
70838;SDS011;58464;52.298;4.852;2023-07-20T05:34:22;4.03;;;0.82;;
70838;SDS011;58464;52.298;4.852;2023-07-20T05:36:47;3.07;;;0.40;;
70838;SDS011;58464;52.298;4.852;2023-07-20T05:39:12;2.80;;;0.83;;
70838;SDS011;58464;52.298;4.852;2023-07-20T05:41:38;1.55;;;0.40;;
70838;SDS011;58464;52.298;4.852;2023-07-20T05:44:03;3.20;;;0.80;;
70838;SDS011;58464;52.298;4.852;2023-07-20T05:46:29;0.45;;;0.40;;
70838;SDS011;58464;52.298;4.852;2023-07-20T05:48:55;0.38;;;0.30;;
70838;SDS011;58464;52.298;4.852;2023-07-20T05:51:20;2.28;;;0.43;;
70838;SDS011;58464;52.298;4.852;2023-07-20T05:53:45;2.73;;;0.70;;
70838;SDS011;58464;52.298;4.852;2023-07-20T05:56:11;2.53;;;0.57;;
70838;SDS011;58464;52.298;4.852;2023-07-20T05:58:36;3.13;;;0.73;;
70838;SDS011;58464;52.298;4.852;2023-07-20T06:01:03;2.55;;;0.70;;
70838;SDS011;58464;52.298;4.852;2023-07-20T06:03:30;2.42;;;0.73;;
70838;SDS011;58464;52.298;4.852;2023-07-20T06:05:59;1.77;;;0.73;;
70838;SDS011;58464;52.298;4.852;2023-07-20T06:08:27;6.60;;;0.90;;
70838;SDS011;58464;52.298;4.852;2023-07-20T06:10:52;4.10;;;1.25;;
70838;SDS011;58464;52.298;4.852;2023-07-20T06:13:17;5.88;;;1.10;;
70838;SDS011;58464;52.298;4.852;2023-07-20T06:15:42;2.00;;;0.55;;
70838;SDS011;58464;52.298;4.852;2023-07-20T06:18:08;2.08;;;0.73;;
70838;SDS011;58464;52.298;4.852;2023-07-20T06:20:34;4.80;;;1.08;;
70838;SDS011;58464;52.298;4.852;2023-07-20T06:22:59;2.28;;;0.70;;
70838;SDS011;58464;52.298;4.852;2023-07-20T06:25:24;6.45;;;0.57;;
70838;SDS011;58464;52.298;4.852;2023-07-20T06:27:50;0.20;;;0.20;;
70838;SDS011;58464;52.298;4.852;2023-07-20T06:30:19;1.67;;;0.77;;
70838;SDS011;58464;52.298;4.852;2023-07-20T06:32:44;1.13;;;0.25;;
70838;SDS011;58464;52.298;4.852;2023-07-20T06:35:09;1.38;;;0.70;;
70838;SDS011;58464;52.298;4.852;2023-07-20T06:37:35;1.03;;;0.60;;
70838;SDS011;58464;52.298;4.852;2023-07-20T06:40:01;0.40;;;0.38;;
70838;SDS011;58464;52.298;4.852;2023-07-20T06:42:26;1.27;;;0.63;;
70838;SDS011;58464;52.298;4.852;2023-07-20T06:44:52;1.73;;;1.17;;
70838;SDS011;58464;52.298;4.852;2023-07-20T06:47:17;4.30;;;0.50;;
70838;SDS011;58464;52.298;4.852;2023-07-20T06:49:42;4.00;;;0.93;;
70838;SDS011;58464;52.298;4.852;2023-07-20T06:52:08;3.60;;;0.88;;
70838;SDS011;58464;52.298;4.852;2023-07-20T06:54:34;4.55;;;1.23;;
70838;SDS011;58464;52.298;4.852;2023-07-20T06:56:59;1.23;;;0.50;;
70838;SDS011;58464;52.298;4.852;2023-07-20T06:59:24;4.60;;;0.63;;
70838;SDS011;58464;52.298;4.852;2023-07-20T07:01:50;5.70;;;0.80;;
70838;SDS011;58464;52.298;4.852;2023-07-20T07:04:15;5.27;;;1.00;;
70838;SDS011;58464;52.298;4.852;2023-07-20T07:06:40;1.92;;;0.70;;
70838;SDS011;58464;52.298;4.852;2023-07-20T07:09:06;3.58;;;1.25;;
70838;SDS011;58464;52.298;4.852;2023-07-20T07:11:33;3.80;;;0.77;;
70838;SDS011;58464;52.298;4.852;2023-07-20T07:13:58;3.95;;;1.08;;
70838;SDS011;58464;52.298;4.852;2023-07-20T07:16:23;5.70;;;1.03;;
70838;SDS011;58464;52.298;4.852;2023-07-20T07:18:50;3.77;;;0.63;;
70838;SDS011;58464;52.298;4.852;2023-07-20T07:21:15;1.63;;;0.60;;
70838;SDS011;58464;52.298;4.852;2023-07-20T07:23:40;6.37;;;1.00;;
70838;SDS011;58464;52.298;4.852;2023-07-20T07:26:06;3.47;;;1.10;;
70838;SDS011;58464;52.298;4.852;2023-07-20T07:28:31;3.07;;;1.00;;
70838;SDS011;58464;52.298;4.852;2023-07-20T07:30:59;2.35;;;0.63;;
70838;SDS011;58464;52.298;4.852;2023-07-20T07:33:24;1.58;;;0.85;;
70838;SDS011;58464;52.298;4.852;2023-07-20T07:35:50;2.50;;;1.00;;
70838;SDS011;58464;52.298;4.852;2023-07-20T07:38:16;9.90;;;0.82;;
70838;SDS011;58464;52.298;4.852;2023-07-20T07:40:41;4.45;;;0.68;;
70838;SDS011;58464;52.298;4.852;2023-07-20T07:43:07;2.85;;;0.85;;
70838;SDS011;58464;52.298;4.852;2023-07-20T07:45:34;2.78;;;0.65;;
70838;SDS011;58464;52.298;4.852;2023-07-20T07:48:00;7.38;;;0.93;;
70838;SDS011;58464;52.298;4.852;2023-07-20T07:50:26;2.92;;;0.60;;
70838;SDS011;58464;52.298;4.852;2023-07-20T07:52:52;3.22;;;0.90;;
70838;SDS011;58464;52.298;4.852;2023-07-20T07:55:17;3.17;;;1.00;;
70838;SDS011;58464;52.298;4.852;2023-07-20T07:57:44;4.97;;;1.08;;
70838;SDS011;58464;52.298;4.852;2023-07-20T08:00:09;3.55;;;0.70;;
70838;SDS011;58464;52.298;4.852;2023-07-20T08:02:39;1.60;;;0.45;;
70838;SDS011;58464;52.298;4.852;2023-07-20T08:05:04;2.28;;;0.80;;
70838;SDS011;58464;52.298;4.852;2023-07-20T08:07:30;3.85;;;0.80;;
70838;SDS011;58464;52.298;4.852;2023-07-20T08:09:55;0.40;;;0.40;;
70838;SDS011;58464;52.298;4.852;2023-07-20T08:12:20;0.87;;;0.60;;
70838;SDS011;58464;52.298;4.852;2023-07-20T08:14:46;1.35;;;0.40;;
70838;SDS011;58464;52.298;4.852;2023-07-20T08:17:11;2.33;;;0.67;;
70838;SDS011;58464;52.298;4.852;2023-07-20T08:19:36;5.22;;;1.02;;
70838;SDS011;58464;52.298;4.852;2023-07-20T08:22:04;7.95;;;0.80;;
70838;SDS011;58464;52.298;4.852;2023-07-20T08:24:31;2.42;;;0.93;;
70838;SDS011;58464;52.298;4.852;2023-07-20T08:26:56;1.97;;;0.97;;
70838;SDS011;58464;52.298;4.852;2023-07-20T08:29:21;3.30;;;0.90;;
70838;SDS011;58464;52.298;4.852;2023-07-20T08:31:47;3.30;;;1.15;;
70838;SDS011;58464;52.298;4.852;2023-07-20T08:34:13;5.13;;;1.20;;
70838;SDS011;58464;52.298;4.852;2023-07-20T08:36:38;3.17;;;1.03;;
70838;SDS011;58464;52.298;4.852;2023-07-20T08:39:04;2.53;;;0.95;;
70838;SDS011;58464;52.298;4.852;2023-07-20T08:41:29;2.67;;;1.00;;
70838;SDS011;58464;52.298;4.852;2023-07-20T08:43:54;6.07;;;1.10;;
70838;SDS011;58464;52.298;4.852;2023-07-20T08:46:20;8.35;;;1.10;;
70838;SDS011;58464;52.298;4.852;2023-07-20T08:48:46;3.90;;;0.98;;
70838;SDS011;58464;52.298;4.852;2023-07-20T08:51:12;2.95;;;0.73;;
70838;SDS011;58464;52.298;4.852;2023-07-20T08:53:38;9.73;;;1.92;;
70838;SDS011;58464;52.298;4.852;2023-07-20T08:56:03;2.65;;;1.02;;
70838;SDS011;58464;52.298;4.852;2023-07-20T08:58:29;9.18;;;1.20;;
70838;SDS011;58464;52.298;4.852;2023-07-20T09:00:54;0.93;;;0.50;;
70838;SDS011;58464;52.298;4.852;2023-07-20T09:03:20;15.05;;;1.50;;
70838;SDS011;58464;52.298;4.852;2023-07-20T09:05:46;0.68;;;0.45;;
70838;SDS011;58464;52.298;4.852;2023-07-20T09:08:11;22.75;;;1.60;;
70838;SDS011;58464;52.298;4.852;2023-07-20T09:10:37;2.63;;;1.00;;
70838;SDS011;58464;52.298;4.852;2023-07-20T09:13:02;1.70;;;0.83;;
70838;SDS011;58464;52.298;4.852;2023-07-20T09:15:28;3.47;;;2.17;;
70838;SDS011;58464;52.298;4.852;2023-07-20T09:17:54;25.30;;;2.10;;
70838;SDS011;58464;52.298;4.852;2023-07-20T09:20:19;4.18;;;0.80;;
70838;SDS011;58464;52.298;4.852;2023-07-20T09:22:45;2.00;;;0.98;;
70838;SDS011;58464;52.298;4.852;2023-07-20T09:25:11;2.13;;;0.70;;
70838;SDS011;58464;52.298;4.852;2023-07-20T09:27:38;0.85;;;0.52;;
70838;SDS011;58464;52.298;4.852;2023-07-20T09:30:04;3.10;;;0.70;;
70838;SDS011;58464;52.298;4.852;2023-07-20T09:32:34;6.32;;;1.40;;
70838;SDS011;58464;52.298;4.852;2023-07-20T09:35:03;2.65;;;1.35;;
70838;SDS011;58464;52.298;4.852;2023-07-20T09:37:28;3.47;;;0.80;;
70838;SDS011;58464;52.298;4.852;2023-07-20T09:39:54;1.90;;;1.08;;
70838;SDS011;58464;52.298;4.852;2023-07-20T09:42:20;1.73;;;1.00;;
70838;SDS011;58464;52.298;4.852;2023-07-20T09:44:46;1.80;;;0.65;;
70838;SDS011;58464;52.298;4.852;2023-07-20T09:47:11;4.13;;;0.70;;
70838;SDS011;58464;52.298;4.852;2023-07-20T09:49:40;1.63;;;0.90;;
70838;SDS011;58464;52.298;4.852;2023-07-20T09:52:06;1.15;;;0.60;;
70838;SDS011;58464;52.298;4.852;2023-07-20T09:54:31;0.60;;;0.50;;
70838;SDS011;58464;52.298;4.852;2023-07-20T09:56:57;1.45;;;0.70;;
70838;SDS011;58464;52.298;4.852;2023-07-20T09:59:23;4.90;;;1.23;;
70838;SDS011;58464;52.298;4.852;2023-07-20T10:01:48;0.60;;;0.50;;
70838;SDS011;58464;52.298;4.852;2023-07-20T10:04:14;2.67;;;0.70;;
70838;SDS011;58464;52.298;4.852;2023-07-20T10:06:42;3.55;;;1.45;;
70838;SDS011;58464;52.298;4.852;2023-07-20T10:09:07;1.23;;;0.55;;
70838;SDS011;58464;52.298;4.852;2023-07-20T10:11:35;0.77;;;0.50;;
70838;SDS011;58464;52.298;4.852;2023-07-20T10:14:00;4.68;;;1.15;;
70838;SDS011;58464;52.298;4.852;2023-07-20T10:16:31;2.33;;;0.70;;
70838;SDS011;58464;52.298;4.852;2023-07-20T10:21:25;1.90;;;0.57;;
70838;SDS011;58464;52.298;4.852;2023-07-20T10:23:50;1.15;;;0.73;;
70838;SDS011;58464;52.298;4.852;2023-07-20T10:26:16;4.78;;;0.70;;
70838;SDS011;58464;52.298;4.852;2023-07-20T10:28:41;2.78;;;0.55;;
70838;SDS011;58464;52.298;4.852;2023-07-20T10:31:10;2.55;;;0.88;;
70838;SDS011;58464;52.298;4.852;2023-07-20T10:33:37;1.02;;;0.35;;
70838;SDS011;58464;52.298;4.852;2023-07-20T10:36:03;1.63;;;0.63;;
70838;SDS011;58464;52.298;4.852;2023-07-20T10:38:43;3.10;;;0.68;;
70838;SDS011;58464;52.298;4.852;2023-07-20T10:41:17;2.42;;;1.00;;
70838;SDS011;58464;52.298;4.852;2023-07-20T10:43:45;1.33;;;0.50;;
70838;SDS011;58464;52.298;4.852;2023-07-20T10:46:11;1.50;;;0.52;;
70838;SDS011;58464;52.298;4.852;2023-07-20T10:48:36;0.80;;;0.50;;
70838;SDS011;58464;52.298;4.852;2023-07-20T10:51:21;0.65;;;0.43;;
70838;SDS011;58464;52.298;4.852;2023-07-20T10:53:50;4.22;;;0.57;;
70838;SDS011;58464;52.298;4.852;2023-07-20T10:56:19;0.60;;;0.43;;
70838;SDS011;58464;52.298;4.852;2023-07-20T10:58:44;3.55;;;0.70;;
70838;SDS011;58464;52.298;4.852;2023-07-20T11:01:13;1.10;;;0.60;;
70838;SDS011;58464;52.298;4.852;2023-07-20T11:03:38;2.28;;;0.70;;
70838;SDS011;58464;52.298;4.852;2023-07-20T11:08:48;3.08;;;0.60;;
70838;SDS011;58464;52.298;4.852;2023-07-20T11:11:27;1.35;;;0.63;;
70838;SDS011;58464;52.298;4.852;2023-07-20T11:14:05;2.53;;;0.98;;
70838;SDS011;58464;52.298;4.852;2023-07-20T11:16:35;2.42;;;0.90;;
70838;SDS011;58464;52.298;4.852;2023-07-20T11:19:01;1.40;;;0.70;;
70838;SDS011;58464;52.298;4.852;2023-07-20T11:21:26;3.22;;;0.70;;
70838;SDS011;58464;52.298;4.852;2023-07-20T11:23:52;1.60;;;0.68;;
70838;SDS011;58464;52.298;4.852;2023-07-20T11:26:17;2.03;;;0.70;;
70838;SDS011;58464;52.298;4.852;2023-07-20T11:28:47;5.07;;;0.90;;
70838;SDS011;58464;52.298;4.852;2023-07-20T11:31:14;0.93;;;0.65;;
70838;SDS011;58464;52.298;4.852;2023-07-20T11:33:41;1.92;;;0.57;;
70838;SDS011;58464;52.298;4.852;2023-07-20T11:36:08;0.70;;;0.40;;
70838;SDS011;58464;52.298;4.852;2023-07-20T11:38:33;2.00;;;0.60;;
70838;SDS011;58464;52.298;4.852;2023-07-20T11:40:58;2.75;;;0.77;;
70838;SDS011;58464;52.298;4.852;2023-07-20T11:43:24;1.70;;;0.60;;
70838;SDS011;58464;52.298;4.852;2023-07-20T11:45:49;1.05;;;0.60;;
70838;SDS011;58464;52.298;4.852;2023-07-20T11:48:18;5.87;;;0.50;;
70838;SDS011;58464;52.298;4.852;2023-07-20T11:50:44;2.47;;;0.80;;
70838;SDS011;58464;52.298;4.852;2023-07-20T11:53:10;4.38;;;1.38;;
70838;SDS011;58464;52.298;4.852;2023-07-20T11:55:35;3.22;;;1.10;;
70838;SDS011;58464;52.298;4.852;2023-07-20T11:58:04;1.17;;;0.70;;
70838;SDS011;58464;52.298;4.852;2023-07-20T12:00:30;2.08;;;0.68;;
70838;SDS011;58464;52.298;4.852;2023-07-20T12:02:56;3.33;;;0.93;;
70838;SDS011;58464;52.298;4.852;2023-07-20T12:05:24;2.53;;;1.03;;
70838;SDS011;58464;52.298;4.852;2023-07-20T12:07:49;0.80;;;0.45;;
70838;SDS011;58464;52.298;4.852;2023-07-20T12:10:15;2.05;;;0.73;;
70838;SDS011;58464;52.298;4.852;2023-07-20T12:12:41;1.35;;;0.80;;
70838;SDS011;58464;52.298;4.852;2023-07-20T12:15:16;1.08;;;0.70;;
70838;SDS011;58464;52.298;4.852;2023-07-20T12:17:45;1.65;;;0.70;;
70838;SDS011;58464;52.298;4.852;2023-07-20T12:20:11;1.92;;;0.73;;
70838;SDS011;58464;52.298;4.852;2023-07-20T12:22:40;2.65;;;0.50;;
70838;SDS011;58464;52.298;4.852;2023-07-20T12:25:06;0.77;;;0.30;;
70838;SDS011;58464;52.298;4.852;2023-07-20T12:27:32;0.63;;;0.38;;
70838;SDS011;58464;52.298;4.852;2023-07-20T12:29:58;0.73;;;0.40;;
70838;SDS011;58464;52.298;4.852;2023-07-20T12:32:23;1.10;;;0.73;;
70838;SDS011;58464;52.298;4.852;2023-07-20T12:34:49;2.30;;;1.42;;
70838;SDS011;58464;52.298;4.852;2023-07-20T12:37:17;8.93;;;1.05;;
70838;SDS011;58464;52.298;4.852;2023-07-20T12:39:42;1.67;;;0.47;;
70838;SDS011;58464;52.298;4.852;2023-07-20T12:42:11;2.00;;;0.43;;
70838;SDS011;58464;52.298;4.852;2023-07-20T12:44:37;1.70;;;0.57;;
70838;SDS011;58464;52.298;4.852;2023-07-20T12:47:02;4.93;;;1.00;;
70838;SDS011;58464;52.298;4.852;2023-07-20T12:49:27;1.02;;;0.70;;
70838;SDS011;58464;52.298;4.852;2023-07-20T12:51:53;3.72;;;0.90;;
70838;SDS011;58464;52.298;4.852;2023-07-20T12:54:18;2.63;;;0.77;;
70838;SDS011;58464;52.298;4.852;2023-07-20T12:56:43;1.45;;;0.60;;
70838;SDS011;58464;52.298;4.852;2023-07-20T12:59:08;1.13;;;0.50;;
70838;SDS011;58464;52.298;4.852;2023-07-20T13:01:34;0.57;;;0.30;;
70838;SDS011;58464;52.298;4.852;2023-07-20T13:03:59;0.93;;;0.60;;
70838;SDS011;58464;52.298;4.852;2023-07-20T13:06:24;0.73;;;0.60;;
70838;SDS011;58464;52.298;4.852;2023-07-20T13:08:51;0.65;;;0.45;;
70838;SDS011;58464;52.298;4.852;2023-07-20T13:11:20;2.70;;;1.20;;
70838;SDS011;58464;52.298;4.852;2023-07-20T13:13:47;0.80;;;0.65;;
70838;SDS011;58464;52.298;4.852;2023-07-20T13:16:12;1.83;;;0.50;;
70838;SDS011;58464;52.298;4.852;2023-07-20T13:18:37;1.50;;;0.50;;
70838;SDS011;58464;52.298;4.852;2023-07-20T13:21:03;0.13;;;0.13;;
70838;SDS011;58464;52.298;4.852;2023-07-20T13:23:28;0.57;;;0.40;;
70838;SDS011;58464;52.298;4.852;2023-07-20T13:25:53;0.93;;;0.57;;
70838;SDS011;58464;52.298;4.852;2023-07-20T13:28:18;1.65;;;0.93;;
70838;SDS011;58464;52.298;4.852;2023-07-20T13:30:44;2.92;;;1.38;;
70838;SDS011;58464;52.298;4.852;2023-07-20T13:33:11;0.80;;;0.50;;
70838;SDS011;58464;52.298;4.852;2023-07-20T13:35:36;0.68;;;0.38;;
70838;SDS011;58464;52.298;4.852;2023-07-20T13:38:02;1.23;;;0.40;;
70838;SDS011;58464;52.298;4.852;2023-07-20T13:40:28;0.70;;;0.30;;
70838;SDS011;58464;52.298;4.852;2023-07-20T13:42:53;1.20;;;0.30;;
70838;SDS011;58464;52.298;4.852;2023-07-20T13:45:18;0.70;;;0.60;;
70838;SDS011;58464;52.298;4.852;2023-07-20T13:47:44;4.22;;;0.50;;
70838;SDS011;58464;52.298;4.852;2023-07-20T13:50:10;1.92;;;0.40;;
70838;SDS011;58464;52.298;4.852;2023-07-20T13:52:35;0.82;;;0.50;;
70838;SDS011;58464;52.298;4.852;2023-07-20T13:55:01;1.92;;;0.52;;
70838;SDS011;58464;52.298;4.852;2023-07-20T13:57:27;1.08;;;0.40;;
70838;SDS011;58464;52.298;4.852;2023-07-20T13:59:52;3.40;;;0.88;;
70838;SDS011;58464;52.298;4.852;2023-07-20T14:02:18;1.05;;;0.40;;
70838;SDS011;58464;52.298;4.852;2023-07-20T14:04:44;1.10;;;0.55;;
70838;SDS011;58464;52.298;4.852;2023-07-20T14:07:09;0.40;;;0.40;;
70838;SDS011;58464;52.298;4.852;2023-07-20T14:09:36;1.33;;;0.60;;
70838;SDS011;58464;52.298;4.852;2023-07-20T14:12:01;1.20;;;0.30;;
70838;SDS011;58464;52.298;4.852;2023-07-20T14:14:26;2.15;;;0.80;;
70838;SDS011;58464;52.298;4.852;2023-07-20T14:16:52;1.00;;;0.60;;
70838;SDS011;58464;52.298;4.852;2023-07-20T14:19:17;1.20;;;0.55;;
70838;SDS011;58464;52.298;4.852;2023-07-20T14:21:42;4.80;;;0.47;;
70838;SDS011;58464;52.298;4.852;2023-07-20T14:24:08;1.50;;;0.50;;
70838;SDS011;58464;52.298;4.852;2023-07-20T14:26:33;1.23;;;0.60;;
70838;SDS011;58464;52.298;4.852;2023-07-20T14:28:58;0.60;;;0.40;;
70838;SDS011;58464;52.298;4.852;2023-07-20T14:31:23;4.53;;;0.60;;
70838;SDS011;58464;52.298;4.852;2023-07-20T14:33:49;0.70;;;0.37;;
70838;SDS011;58464;52.298;4.852;2023-07-20T14:36:15;2.65;;;0.45;;
70838;SDS011;58464;52.298;4.852;2023-07-20T14:38:40;2.90;;;1.05;;
70838;SDS011;58464;52.298;4.852;2023-07-20T14:41:05;2.42;;;0.65;;
70838;SDS011;58464;52.298;4.852;2023-07-20T14:43:31;2.22;;;1.13;;
70838;SDS011;58464;52.298;4.852;2023-07-20T14:45:56;1.63;;;0.85;;
70838;SDS011;58464;52.298;4.852;2023-07-20T14:48:22;0.50;;;0.50;;
70838;SDS011;58464;52.298;4.852;2023-07-20T14:50:47;0.30;;;0.30;;
70838;SDS011;58464;52.298;4.852;2023-07-20T14:53:13;0.73;;;0.40;;
70838;SDS011;58464;52.298;4.852;2023-07-20T14:55:38;0.22;;;0.17;;